KTMB/TMB METAR and TAF weather

Enter ICAO airport designator
Station Type Date Time Source
KTMB METAR 2022/12/05 14:53 UTC NOAA

KTMB 051453Z 01007KT 10SM CLR 24/18 A3011 RMK AO2 SLP194 T02440178 53013


Station Type Date Time Source
KTMB Decoded METAR 2022/12/05 14:53 UTC NOAA

KENDALL-TAMIAMI EXEC AIRPORT , FL, United States (KTMB) 25-39N 080-26W 2M
Dec 05, 2022 - 09:53 AM EST / 2022.12.05 1453 UTC
Wind: from the N (010 degrees) at 8 MPH (7 KT):0
Visibility: 10 mile(s):0
Sky conditions: clear
Temperature: 75.9 F (24.4 C)
Dew Point: 64.0 F (17.8 C)
Relative Humidity: 66%
Pressure (altimeter): 30.11 in. Hg (1019 hPa)
Pressure tendency: 0.04 inches (1.3 hPa) higher than three hours ago
ob: KTMB 051453Z 01007KT 10SM CLR 24/18 A3011 RMK AO2 SLP194 T02440178 53013
cycle: 15

Station Type Date Time Source
KTMB TAF 2022/12/05 15:04 UTC NOAA

TAF
AMD KTMB 051502Z 0515/0612 04009KT P6SM FEW030 SCT045
FM060200 VRB03KT P6SM FEW035

Example: see airport list